sensor_id;sensor_type;location;lat;lon;timestamp;pressure;altitude;pressure_sealevel;temperature;humidity
56668;BME280;42542;48.360;10.958;2022-08-21T00:01:27;96232.84;;;16.12;100.00
56668;BME280;42542;48.360;10.958;2022-08-21T00:04:33;96238.19;;;16.05;100.00
56668;BME280;42542;48.360;10.958;2022-08-21T00:07:35;96236.88;;;16.01;100.00
56668;BME280;42542;48.360;10.958;2022-08-21T00:10:38;96232.28;;;15.95;100.00
56668;BME280;42542;48.360;10.958;2022-08-21T00:13:42;96234.78;;;15.96;100.00
56668;BME280;42542;48.360;10.958;2022-08-21T00:16:44;96228.75;;;15.94;100.00
56668;BME280;42542;48.360;10.958;2022-08-21T00:19:48;96231.50;;;16.01;100.00
56668;BME280;42542;48.360;10.958;2022-08-21T00:22:50;96224.38;;;15.93;100.00
56668;BME280;42542;48.360;10.958;2022-08-21T00:25:57;96210.66;;;15.88;100.00
56668;BME280;42542;48.360;10.958;2022-08-21T00:28:59;96219.59;;;15.89;100.00
56668;BME280;42542;48.360;10.958;2022-08-21T00:32:02;96206.31;;;15.87;100.00
56668;BME280;42542;48.360;10.958;2022-08-21T00:35:08;96220.00;;;15.92;100.00
56668;BME280;42542;48.360;10.958;2022-08-21T00:38:12;96218.75;;;15.88;100.00
56668;BME280;42542;48.360;10.958;2022-08-21T00:41:14;96224.97;;;15.89;100.00
56668;BME280;42542;48.360;10.958;2022-08-21T00:44:39;96210.22;;;15.85;100.00
56668;BME280;42542;48.360;10.958;2022-08-21T00:47:41;96207.72;;;15.83;100.00
56668;BME280;42542;48.360;10.958;2022-08-21T00:50:51;96212.22;;;15.76;100.00
56668;BME280;42542;48.360;10.958;2022-08-21T00:54:17;96207.69;;;15.77;100.00
56668;BME280;42542;48.360;10.958;2022-08-21T00:57:26;96207.22;;;15.73;100.00
56668;BME280;42542;48.360;10.958;2022-08-21T01:00:37;96210.31;;;15.70;100.00
56668;BME280;42542;48.360;10.958;2022-08-21T01:03:40;96219.66;;;15.74;100.00
56668;BME280;42542;48.360;10.958;2022-08-21T01:06:46;96204.03;;;15.63;100.00
56668;BME280;42542;48.360;10.958;2022-08-21T01:09:48;96192.38;;;15.56;100.00
56668;BME280;42542;48.360;10.958;2022-08-21T01:12:52;96197.75;;;15.56;100.00
56668;BME280;42542;48.360;10.958;2022-08-21T01:15:56;96202.09;;;15.57;100.00
56668;BME280;42542;48.360;10.958;2022-08-21T01:19:06;96192.06;;;15.51;100.00
56668;BME280;42542;48.360;10.958;2022-08-21T01:22:10;96214.53;;;15.58;100.00
56668;BME280;42542;48.360;10.958;2022-08-21T01:25:15;96215.38;;;15.58;100.00
56668;BME280;42542;48.360;10.958;2022-08-21T01:28:17;96203.59;;;15.45;100.00
56668;BME280;42542;48.360;10.958;2022-08-21T01:31:24;96196.19;;;15.47;100.00
56668;BME280;42542;48.360;10.958;2022-08-21T01:34:27;96187.44;;;15.45;100.00
56668;BME280;42542;48.360;10.958;2022-08-21T01:37:39;96193.84;;;15.44;100.00
56668;BME280;42542;48.360;10.958;2022-08-21T01:40:41;96195.91;;;15.42;100.00
56668;BME280;42542;48.360;10.958;2022-08-21T01:43:51;96188.66;;;15.42;100.00
56668;BME280;42542;48.360;10.958;2022-08-21T01:46:53;96200.38;;;15.35;100.00
56668;BME280;42542;48.360;10.958;2022-08-21T01:49:59;96190.66;;;15.34;100.00
56668;BME280;42542;48.360;10.958;2022-08-21T01:53:06;96197.00;;;15.26;100.00
56668;BME280;42542;48.360;10.958;2022-08-21T01:56:14;96194.88;;;15.21;100.00
56668;BME280;42542;48.360;10.958;2022-08-21T01:59:20;96195.44;;;15.17;100.00
56668;BME280;42542;48.360;10.958;2022-08-21T02:02:23;96185.44;;;15.11;100.00
56668;BME280;42542;48.360;10.958;2022-08-21T02:05:25;96199.34;;;15.14;100.00
56668;BME280;42542;48.360;10.958;2022-08-21T02:08:28;96184.53;;;15.04;100.00
56668;BME280;42542;48.360;10.958;2022-08-21T02:11:33;96189.09;;;15.03;100.00
56668;BME280;42542;48.360;10.958;2022-08-21T02:14:35;96194.66;;;15.02;100.00
56668;BME280;42542;48.360;10.958;2022-08-21T02:17:47;96180.88;;;14.90;100.00
56668;BME280;42542;48.360;10.958;2022-08-21T02:20:52;96187.09;;;14.91;100.00
56668;BME280;42542;48.360;10.958;2022-08-21T02:23:57;96174.56;;;14.83;100.00
56668;BME280;42542;48.360;10.958;2022-08-21T02:27:09;96188.66;;;14.85;100.00
56668;BME280;42542;48.360;10.958;2022-08-21T02:30:16;96173.38;;;14.71;100.00
56668;BME280;42542;48.360;10.958;2022-08-21T02:33:23;96183.38;;;14.77;100.00
56668;BME280;42542;48.360;10.958;2022-08-21T02:36:27;96168.09;;;14.63;100.00
56668;BME280;42542;48.360;10.958;2022-08-21T02:39:32;96166.63;;;14.60;100.00
56668;BME280;42542;48.360;10.958;2022-08-21T02:42:40;96164.31;;;14.57;100.00
56668;BME280;42542;48.360;10.958;2022-08-21T02:45:43;96179.25;;;14.60;100.00
56668;BME280;42542;48.360;10.958;2022-08-21T02:48:50;96170.25;;;14.53;100.00
56668;BME280;42542;48.360;10.958;2022-08-21T02:51:52;96169.59;;;14.51;100.00
56668;BME280;42542;48.360;10.958;2022-08-21T02:54:57;96171.66;;;14.49;100.00
56668;BME280;42542;48.360;10.958;2022-08-21T02:58:04;96175.75;;;14.44;100.00
56668;BME280;42542;48.360;10.958;2022-08-21T03:01:07;96182.78;;;14.45;100.00
56668;BME280;42542;48.360;10.958;2022-08-21T03:04:13;96170.94;;;14.40;100.00
56668;BME280;42542;48.360;10.958;2022-08-21T03:07:18;96186.84;;;14.41;100.00
56668;BME280;42542;48.360;10.958;2022-08-21T03:10:21;96184.56;;;14.38;100.00
56668;BME280;42542;48.360;10.958;2022-08-21T03:13:26;96171.34;;;14.29;100.00
56668;BME280;42542;48.360;10.958;2022-08-21T03:16:29;96190.25;;;14.35;100.00
56668;BME280;42542;48.360;10.958;2022-08-21T03:19:35;96177.97;;;14.26;100.00
56668;BME280;42542;48.360;10.958;2022-08-21T03:22:37;96168.56;;;14.22;100.00
56668;BME280;42542;48.360;10.958;2022-08-21T03:25:39;96173.88;;;14.16;100.00
56668;BME280;42542;48.360;10.958;2022-08-21T03:28:42;96178.22;;;14.17;100.00
56668;BME280;42542;48.360;10.958;2022-08-21T03:31:44;96180.63;;;14.12;100.00
56668;BME280;42542;48.360;10.958;2022-08-21T03:34:54;96181.00;;;14.08;100.00
56668;BME280;42542;48.360;10.958;2022-08-21T03:38:00;96180.34;;;14.06;100.00
56668;BME280;42542;48.360;10.958;2022-08-21T03:41:04;96172.84;;;14.02;100.00
56668;BME280;42542;48.360;10.958;2022-08-21T03:44:08;96191.41;;;14.12;100.00
56668;BME280;42542;48.360;10.958;2022-08-21T03:47:13;96181.09;;;14.00;100.00
56668;BME280;42542;48.360;10.958;2022-08-21T03:50:16;96178.88;;;14.04;100.00
56668;BME280;42542;48.360;10.958;2022-08-21T03:53:20;96179.88;;;14.03;100.00
56668;BME280;42542;48.360;10.958;2022-08-21T03:56:34;96183.41;;;14.03;100.00
56668;BME280;42542;48.360;10.958;2022-08-21T03:59:37;96188.22;;;14.08;100.00
56668;BME280;42542;48.360;10.958;2022-08-21T04:02:45;96188.22;;;14.08;100.00
56668;BME280;42542;48.360;10.958;2022-08-21T04:05:49;96169.03;;;13.96;100.00
56668;BME280;42542;48.360;10.958;2022-08-21T04:08:52;96183.19;;;14.05;100.00
56668;BME280;42542;48.360;10.958;2022-08-21T04:11:56;96177.09;;;13.96;100.00
56668;BME280;42542;48.360;10.958;2022-08-21T04:15:00;96181.16;;;13.92;100.00
56668;BME280;42542;48.360;10.958;2022-08-21T04:18:05;96195.91;;;13.96;100.00
56668;BME280;42542;48.360;10.958;2022-08-21T04:21:09;96188.56;;;13.90;100.00
56668;BME280;42542;48.360;10.958;2022-08-21T04:24:15;96198.13;;;13.93;100.00
56668;BME280;42542;48.360;10.958;2022-08-21T04:27:20;96197.84;;;13.88;100.00
56668;BME280;42542;48.360;10.958;2022-08-21T04:30:22;96207.56;;;13.89;100.00
56668;BME280;42542;48.360;10.958;2022-08-21T04:33:29;96197.56;;;13.83;100.00
56668;BME280;42542;48.360;10.958;2022-08-21T04:36:34;96208.09;;;13.84;100.00
56668;BME280;42542;48.360;10.958;2022-08-21T04:39:38;96220.00;;;13.90;100.00
56668;BME280;42542;48.360;10.958;2022-08-21T04:45:50;96215.16;;;13.85;100.00
56668;BME280;42542;48.360;10.958;2022-08-21T04:48:56;96216.91;;;13.78;100.00
56668;BME280;42542;48.360;10.958;2022-08-21T04:51:58;96213.38;;;13.78;100.00
56668;BME280;42542;48.360;10.958;2022-08-21T04:55:01;96203.34;;;13.72;100.00
56668;BME280;42542;48.360;10.958;2022-08-21T04:58:11;96220.81;;;13.76;100.00
56668;BME280;42542;48.360;10.958;2022-08-21T05:01:17;96213.09;;;13.73;100.00
56668;BME280;42542;48.360;10.958;2022-08-21T05:04:25;96217.44;;;13.74;100.00
56668;BME280;42542;48.360;10.958;2022-08-21T05:07:31;96221.91;;;13.81;100.00
56668;BME280;42542;48.360;10.958;2022-08-21T05:10:46;96233.59;;;13.88;100.00
56668;BME280;42542;48.360;10.958;2022-08-21T05:13:59;96227.13;;;13.83;100.00
56668;BME280;42542;48.360;10.958;2022-08-21T05:17:03;96219.88;;;13.83;100.00
56668;BME280;42542;48.360;10.958;2022-08-21T05:20:07;96229.69;;;13.91;100.00
56668;BME280;42542;48.360;10.958;2022-08-21T05:23:11;96233.16;;;13.99;100.00
56668;BME280;42542;48.360;10.958;2022-08-21T05:26:13;96220.56;;;14.00;100.00
56668;BME280;42542;48.360;10.958;2022-08-21T05:29:19;96211.47;;;14.01;100.00
56668;BME280;42542;48.360;10.958;2022-08-21T05:32:24;96214.75;;;14.11;100.00
56668;BME280;42542;48.360;10.958;2022-08-21T05:35:27;96213.91;;;14.11;100.00
56668;BME280;42542;48.360;10.958;2022-08-21T05:38:29;96221.34;;;14.23;100.00
56668;BME280;42542;48.360;10.958;2022-08-21T05:41:31;96218.75;;;14.30;100.00
56668;BME280;42542;48.360;10.958;2022-08-21T05:44:34;96220.69;;;14.36;100.00
56668;BME280;42542;48.360;10.958;2022-08-21T05:47:38;96227.09;;;14.50;100.00
56668;BME280;42542;48.360;10.958;2022-08-21T05:50:42;96221.91;;;14.48;100.00
56668;BME280;42542;48.360;10.958;2022-08-21T05:53:49;96212.81;;;14.49;100.00
56668;BME280;42542;48.360;10.958;2022-08-21T05:56:54;96226.94;;;14.66;100.00
56668;BME280;42542;48.360;10.958;2022-08-21T05:59:56;96220.13;;;14.70;100.00
56668;BME280;42542;48.360;10.958;2022-08-21T06:03:10;96224.22;;;14.80;100.00
56668;BME280;42542;48.360;10.958;2022-08-21T06:06:24;96218.06;;;14.87;100.00
56668;BME280;42542;48.360;10.958;2022-08-21T06:09:27;96229.00;;;15.00;100.00
56668;BME280;42542;48.360;10.958;2022-08-21T06:12:31;96231.97;;;15.05;100.00
56668;BME280;42542;48.360;10.958;2022-08-21T06:15:34;96230.38;;;15.10;100.00
56668;BME280;42542;48.360;10.958;2022-08-21T06:18:39;96225.00;;;15.10;100.00
56668;BME280;42542;48.360;10.958;2022-08-21T06:21:52;96232.38;;;15.23;100.00
56668;BME280;42542;48.360;10.958;2022-08-21T06:24:57;96234.97;;;15.31;100.00
56668;BME280;42542;48.360;10.958;2022-08-21T06:28:09;96236.06;;;15.37;100.00
56668;BME280;42542;48.360;10.958;2022-08-21T06:34:14;96239.53;;;15.52;100.00
56668;BME280;42542;48.360;10.958;2022-08-21T06:37:16;96236.28;;;15.56;100.00
56668;BME280;42542;48.360;10.958;2022-08-21T06:40:18;96236.75;;;15.60;100.00
56668;BME280;42542;48.360;10.958;2022-08-21T06:43:20;96227.03;;;15.66;100.00
56668;BME280;42542;48.360;10.958;2022-08-21T06:46:31;96233.13;;;15.74;100.00
56668;BME280;42542;48.360;10.958;2022-08-21T06:49:34;96233.00;;;15.82;100.00
56668;BME280;42542;48.360;10.958;2022-08-21T06:52:45;96228.69;;;15.88;100.00
56668;BME280;42542;48.360;10.958;2022-08-21T06:55:58;96228.38;;;15.97;100.00
56668;BME280;42542;48.360;10.958;2022-08-21T06:59:05;96229.63;;;16.01;100.00
56668;BME280;42542;48.360;10.958;2022-08-21T07:02:10;96222.44;;;16.09;100.00
56668;BME280;42542;48.360;10.958;2022-08-21T07:05:15;96221.66;;;16.15;100.00
56668;BME280;42542;48.360;10.958;2022-08-21T07:08:19;96231.44;;;16.22;100.00
56668;BME280;42542;48.360;10.958;2022-08-21T07:11:27;96229.03;;;16.27;98.47
56668;BME280;42542;48.360;10.958;2022-08-21T07:14:37;96230.09;;;16.33;98.75
56668;BME280;42542;48.360;10.958;2022-08-21T07:17:46;96222.88;;;16.40;98.61
56668;BME280;42542;48.360;10.958;2022-08-21T07:20:48;96226.44;;;16.47;97.38
56668;BME280;42542;48.360;10.958;2022-08-21T07:23:59;96232.72;;;16.54;96.96
56668;BME280;42542;48.360;10.958;2022-08-21T07:27:03;96221.31;;;16.59;97.77
56668;BME280;42542;48.360;10.958;2022-08-21T07:30:11;96227.41;;;16.67;97.93
56668;BME280;42542;48.360;10.958;2022-08-21T07:33:13;96223.72;;;16.75;97.22
56668;BME280;42542;48.360;10.958;2022-08-21T07:36:15;96227.09;;;16.84;97.16
56668;BME280;42542;48.360;10.958;2022-08-21T07:39:17;96235.88;;;16.92;96.43
56668;BME280;42542;48.360;10.958;2022-08-21T07:42:19;96218.81;;;16.92;96.38
56668;BME280;42542;48.360;10.958;2022-08-21T07:45:22;96229.25;;;17.08;96.00
56668;BME280;42542;48.360;10.958;2022-08-21T07:48:27;96227.19;;;17.10;95.49
56668;BME280;42542;48.360;10.958;2022-08-21T07:51:29;96225.34;;;17.17;95.54
56668;BME280;42542;48.360;10.958;2022-08-21T07:54:31;96238.06;;;17.30;94.97
56668;BME280;42542;48.360;10.958;2022-08-21T07:57:34;96222.69;;;17.30;93.90
56668;BME280;42542;48.360;10.958;2022-08-21T08:00:36;96217.91;;;17.32;91.87
56668;BME280;42542;48.360;10.958;2022-08-21T08:03:41;96220.84;;;17.37;91.49
56668;BME280;42542;48.360;10.958;2022-08-21T08:06:43;96229.78;;;17.44;89.50
56668;BME280;42542;48.360;10.958;2022-08-21T08:09:51;96219.22;;;17.49;90.20
56668;BME280;42542;48.360;10.958;2022-08-21T08:12:56;96223.38;;;17.58;90.71
56668;BME280;42542;48.360;10.958;2022-08-21T08:16:02;96214.69;;;17.63;90.94
56668;BME280;42542;48.360;10.958;2022-08-21T08:19:08;96214.28;;;17.73;90.02
56668;BME280;42542;48.360;10.958;2022-08-21T08:22:24;96221.59;;;17.85;89.51
56668;BME280;42542;48.360;10.958;2022-08-21T08:25:27;96220.75;;;17.85;88.88
56668;BME280;42542;48.360;10.958;2022-08-21T08:28:37;96221.59;;;17.92;88.30
56668;BME280;42542;48.360;10.958;2022-08-21T08:31:42;96214.91;;;17.94;88.51
56668;BME280;42542;48.360;10.958;2022-08-21T08:34:44;96210.97;;;18.04;89.08
56668;BME280;42542;48.360;10.958;2022-08-21T08:37:49;96207.84;;;18.13;89.42
56668;BME280;42542;48.360;10.958;2022-08-21T08:44:01;96207.00;;;18.26;89.07
56668;BME280;42542;48.360;10.958;2022-08-21T08:47:05;96202.81;;;18.30;88.63
56668;BME280;42542;48.360;10.958;2022-08-21T08:50:21;96212.59;;;18.38;87.60
56668;BME280;42542;48.360;10.958;2022-08-21T08:53:30;96187.22;;;18.32;87.64
56668;BME280;42542;48.360;10.958;2022-08-21T08:56:34;96203.44;;;18.39;87.26
56668;BME280;42542;48.360;10.958;2022-08-21T08:59:42;96197.81;;;18.47;87.10
56668;BME280;42542;48.360;10.958;2022-08-21T09:02:50;96193.03;;;18.49;87.35
56668;BME280;42542;48.360;10.958;2022-08-21T09:06:08;96210.72;;;18.64;86.94
56668;BME280;42542;48.360;10.958;2022-08-21T09:09:25;96192.81;;;18.63;87.37
56668;BME280;42542;48.360;10.958;2022-08-21T09:26:16;96192.03;;;19.07;84.30
56668;BME280;42542;48.360;10.958;2022-08-21T09:29:26;96194.91;;;19.13;83.84
56668;BME280;42542;48.360;10.958;2022-08-21T09:32:35;96195.91;;;19.18;83.63
56668;BME280;42542;48.360;10.958;2022-08-21T09:35:53;96195.09;;;19.18;83.82
56668;BME280;42542;48.360;10.958;2022-08-21T09:38:55;96183.22;;;19.19;83.57
56668;BME280;42542;48.360;10.958;2022-08-21T09:42:03;96196.94;;;19.30;81.66
56668;BME280;42542;48.360;10.958;2022-08-21T09:45:15;96182.28;;;19.31;82.09
56668;BME280;42542;48.360;10.958;2022-08-21T09:48:21;96186.41;;;19.40;81.35
56668;BME280;42542;48.360;10.958;2022-08-21T09:51:33;96186.41;;;19.47;80.62
56668;BME280;42542;48.360;10.958;2022-08-21T09:54:38;96190.31;;;19.58;80.86
56668;BME280;42542;48.360;10.958;2022-08-21T09:57:44;96173.22;;;19.57;79.33
56668;BME280;42542;48.360;10.958;2022-08-21T10:01:00;96189.22;;;19.65;78.55
56668;BME280;42542;48.360;10.958;2022-08-21T10:04:07;96175.63;;;19.72;77.88
56668;BME280;42542;48.360;10.958;2022-08-21T10:07:11;96167.84;;;19.75;78.03
56668;BME280;42542;48.360;10.958;2022-08-21T10:13:27;96181.72;;;19.92;75.44
56668;BME280;42542;48.360;10.958;2022-08-21T10:20:04;96173.31;;;20.00;73.82
56668;BME280;42542;48.360;10.958;2022-08-21T10:30:15;96156.47;;;20.16;73.17
56668;BME280;42542;48.360;10.958;2022-08-21T10:33:53;96168.47;;;20.27;70.87
56668;BME280;42542;48.360;10.958;2022-08-21T10:44:12;96150.72;;;20.24;69.55
56668;BME280;42542;48.360;10.958;2022-08-21T10:47:30;96153.00;;;20.27;69.72
56668;BME280;42542;48.360;10.958;2022-08-21T10:50:49;96157.16;;;20.30;65.73
56668;BME280;42542;48.360;10.958;2022-08-21T10:54:10;96158.94;;;20.43;66.34
56668;BME280;42542;48.360;10.958;2022-08-21T11:00:49;96153.38;;;20.56;59.53
56668;BME280;42542;48.360;10.958;2022-08-21T11:04:09;96149.75;;;20.62;55.60
56668;BME280;42542;48.360;10.958;2022-08-21T11:07:21;96141.22;;;20.58;57.74
56668;BME280;42542;48.360;10.958;2022-08-21T11:10:33;96148.59;;;20.70;59.38
56668;BME280;42542;48.360;10.958;2022-08-21T11:14:13;96141.59;;;20.80;58.78
56668;BME280;42542;48.360;10.958;2022-08-21T11:17:32;96141.75;;;20.85;58.93
56668;BME280;42542;48.360;10.958;2022-08-21T11:24:29;96127.97;;;20.98;56.76
56668;BME280;42542;48.360;10.958;2022-08-21T11:27:49;96136.16;;;21.17;57.36
56668;BME280;42542;48.360;10.958;2022-08-21T11:31:22;96120.81;;;21.22;56.88
56668;BME280;42542;48.360;10.958;2022-08-21T11:42:02;96122.78;;;21.45;53.36
56668;BME280;42542;48.360;10.958;2022-08-21T11:45:39;96132.38;;;21.59;54.65
56668;BME280;42542;48.360;10.958;2022-08-21T11:52:35;96120.34;;;21.67;54.17
56668;BME280;42542;48.360;10.958;2022-08-21T11:55:44;96116.78;;;21.66;53.71
56668;BME280;42542;48.360;10.958;2022-08-21T11:58:56;96117.13;;;21.70;54.12
56668;BME280;42542;48.360;10.958;2022-08-21T12:02:01;96118.22;;;21.80;54.76
56668;BME280;42542;48.360;10.958;2022-08-21T12:05:20;96111.47;;;21.83;52.79
56668;BME280;42542;48.360;10.958;2022-08-21T12:08:32;96100.63;;;21.95;52.81
56668;BME280;42542;48.360;10.958;2022-08-21T12:11:47;96099.81;;;22.06;52.40
56668;BME280;42542;48.360;10.958;2022-08-21T12:15:27;96101.13;;;22.15;50.01
56668;BME280;42542;48.360;10.958;2022-08-21T12:31:55;96091.28;;;22.37;48.35
56668;BME280;42542;48.360;10.958;2022-08-21T12:35:15;96092.72;;;22.40;47.58
56668;BME280;42542;48.360;10.958;2022-08-21T12:38:33;96080.25;;;22.44;47.96
56668;BME280;42542;48.360;10.958;2022-08-21T12:41:49;96074.34;;;22.47;47.67
56668;BME280;42542;48.360;10.958;2022-08-21T12:45:06;96066.50;;;22.50;47.84
56668;BME280;42542;48.360;10.958;2022-08-21T12:48:20;96053.13;;;22.49;47.96
56668;BME280;42542;48.360;10.958;2022-08-21T12:54:49;96052.03;;;22.62;47.86
56668;BME280;42542;48.360;10.958;2022-08-21T12:57:54;96046.22;;;22.58;46.24
56668;BME280;42542;48.360;10.958;2022-08-21T13:01:04;96052.03;;;22.62;46.59
56668;BME280;42542;48.360;10.958;2022-08-21T13:04:09;96040.03;;;22.63;46.83
56668;BME280;42542;48.360;10.958;2022-08-21T13:07:36;96047.28;;;22.69;46.08
56668;BME280;42542;48.360;10.958;2022-08-21T13:10:40;96044.28;;;22.70;46.52
56668;BME280;42542;48.360;10.958;2022-08-21T13:13:48;96040.25;;;22.73;45.99
56668;BME280;42542;48.360;10.958;2022-08-21T13:16:55;96037.19;;;22.81;46.28
56668;BME280;42542;48.360;10.958;2022-08-21T13:20:24;96039.28;;;22.90;46.02
56668;BME280;42542;48.360;10.958;2022-08-21T13:23:28;96039.72;;;22.99;46.99
56668;BME280;42542;48.360;10.958;2022-08-21T13:26:30;96018.63;;;22.94;46.38
56668;BME280;42542;48.360;10.958;2022-08-21T13:29:33;96040.81;;;23.15;45.83
56668;BME280;42542;48.360;10.958;2022-08-21T13:32:44;96032.06;;;23.13;44.05
56668;BME280;42542;48.360;10.958;2022-08-21T13:39:03;96027.66;;;23.40;43.53
56668;BME280;42542;48.360;10.958;2022-08-21T13:42:10;96036.03;;;23.67;42.55
56668;BME280;42542;48.360;10.958;2022-08-21T13:45:35;96023.47;;;23.83;42.29
56668;BME280;42542;48.360;10.958;2022-08-21T13:48:37;96034.84;;;24.13;43.50
56668;BME280;42542;48.360;10.958;2022-08-21T13:51:40;96021.16;;;24.30;43.27
56668;BME280;42542;48.360;10.958;2022-08-21T13:54:42;96021.25;;;24.35;42.77
56668;BME280;42542;48.360;10.958;2022-08-21T13:57:46;96031.28;;;24.51;42.05
56668;BME280;42542;48.360;10.958;2022-08-21T14:00:52;96023.16;;;24.78;41.66
56668;BME280;42542;48.360;10.958;2022-08-21T14:04:01;96025.31;;;25.24;41.25
56668;BME280;42542;48.360;10.958;2022-08-21T14:07:20;96013.25;;;25.52;37.88
56668;BME280;42542;48.360;10.958;2022-08-21T14:10:35;96023.56;;;25.72;37.97
56668;BME280;42542;48.360;10.958;2022-08-21T14:13:47;96024.84;;;25.96;37.55
56668;BME280;42542;48.360;10.958;2022-08-21T14:17:25;96030.63;;;26.00;36.94
56668;BME280;42542;48.360;10.958;2022-08-21T14:20:34;96021.00;;;25.92;36.65
56668;BME280;42542;48.360;10.958;2022-08-21T14:23:36;96009.56;;;26.00;38.26
56668;BME280;42542;48.360;10.958;2022-08-21T14:27:02;96025.34;;;25.88;34.79
56668;BME280;42542;48.360;10.958;2022-08-21T14:30:19;96016.41;;;25.66;35.95
56668;BME280;42542;48.360;10.958;2022-08-21T14:33:27;96023.41;;;25.84;37.46
56668;BME280;42542;48.360;10.958;2022-08-21T14:36:32;96002.22;;;26.16;38.36
56668;BME280;42542;48.360;10.958;2022-08-21T14:39:34;96006.75;;;26.32;36.96
56668;BME280;42542;48.360;10.958;2022-08-21T14:42:36;96009.47;;;26.27;36.99
56668;BME280;42542;48.360;10.958;2022-08-21T14:45:39;96007.44;;;26.13;37.27
56668;BME280;42542;48.360;10.958;2022-08-21T14:48:42;96008.50;;;26.12;38.72
56668;BME280;42542;48.360;10.958;2022-08-21T14:51:44;96007.44;;;26.13;38.67
56668;BME280;42542;48.360;10.958;2022-08-21T14:54:54;96005.44;;;26.03;37.94
56668;BME280;42542;48.360;10.958;2022-08-21T14:57:59;96007.81;;;25.89;38.67
56668;BME280;42542;48.360;10.958;2022-08-21T15:01:09;96006.88;;;25.74;39.14
56668;BME280;42542;48.360;10.958;2022-08-21T15:04:16;96000.13;;;25.54;39.17
56668;BME280;42542;48.360;10.958;2022-08-21T15:07:18;96008.09;;;25.29;38.83
56668;BME280;42542;48.360;10.958;2022-08-21T15:10:20;96002.69;;;25.07;39.60
56668;BME280;42542;48.360;10.958;2022-08-21T15:13:23;96002.97;;;25.06;40.53
56668;BME280;42542;48.360;10.958;2022-08-21T15:16:27;96002.09;;;25.27;39.86
56668;BME280;42542;48.360;10.958;2022-08-21T15:19:29;95996.78;;;25.47;39.80
56668;BME280;42542;48.360;10.958;2022-08-21T15:22:36;96001.47;;;25.84;39.28
56668;BME280;42542;48.360;10.958;2022-08-21T15:25:41;95997.03;;;26.15;39.30
56668;BME280;42542;48.360;10.958;2022-08-21T15:28:46;95990.13;;;26.54;38.72
56668;BME280;42542;48.360;10.958;2022-08-21T15:31:56;96004.56;;;26.92;37.86
56668;BME280;42542;48.360;10.958;2022-08-21T15:34:58;95981.81;;;27.16;36.92
56668;BME280;42542;48.360;10.958;2022-08-21T15:38:03;95973.91;;;27.30;36.11
56668;BME280;42542;48.360;10.958;2022-08-21T15:41:05;95988.44;;;27.46;36.18
56668;BME280;42542;48.360;10.958;2022-08-21T15:44:16;95976.41;;;27.57;36.22
56668;BME280;42542;48.360;10.958;2022-08-21T15:47:22;95975.84;;;27.75;35.33
56668;BME280;42542;48.360;10.958;2022-08-21T15:50:28;95979.41;;;27.86;35.81
56668;BME280;42542;48.360;10.958;2022-08-21T15:53:30;95982.97;;;28.02;36.79
56668;BME280;42542;48.360;10.958;2022-08-21T15:56:38;95971.97;;;27.96;36.73
56668;BME280;42542;48.360;10.958;2022-08-21T16:04:05;95977.22;;;27.78;35.63
56668;BME280;42542;48.360;10.958;2022-08-21T16:07:11;95965.38;;;27.47;35.64
56668;BME280;42542;48.360;10.958;2022-08-21T16:10:15;95977.72;;;27.14;35.47
56668;BME280;42542;48.360;10.958;2022-08-21T16:13:26;95969.66;;;26.72;35.47
56668;BME280;42542;48.360;10.958;2022-08-21T16:16:30;95979.09;;;26.44;36.56
56668;BME280;42542;48.360;10.958;2022-08-21T16:19:40;95973.97;;;26.11;36.81
56668;BME280;42542;48.360;10.958;2022-08-21T16:22:43;95984.84;;;25.95;37.11
56668;BME280;42542;48.360;10.958;2022-08-21T16:25:48;95964.47;;;25.76;36.97
56668;BME280;42542;48.360;10.958;2022-08-21T16:28:54;95974.34;;;25.77;36.99
56668;BME280;42542;48.360;10.958;2022-08-21T16:32:01;95962.97;;;25.58;37.42
56668;BME280;42542;48.360;10.958;2022-08-21T16:35:04;95961.78;;;25.49;37.58
56668;BME280;42542;48.360;10.958;2022-08-21T16:38:06;95963.13;;;25.47;37.60
56668;BME280;42542;48.360;10.958;2022-08-21T16:41:11;95972.94;;;25.43;37.74
56668;BME280;42542;48.360;10.958;2022-08-21T16:44:14;95964.66;;;25.33;38.44
56668;BME280;42542;48.360;10.958;2022-08-21T16:47:17;95971.63;;;25.18;37.63
56668;BME280;42542;48.360;10.958;2022-08-21T16:50:27;95965.50;;;25.06;38.53
56668;BME280;42542;48.360;10.958;2022-08-21T16:53:40;95969.53;;;24.99;38.21
56668;BME280;42542;48.360;10.958;2022-08-21T16:56:49;95959.22;;;24.84;38.69
56668;BME280;42542;48.360;10.958;2022-08-21T16:59:58;95964.09;;;24.77;39.18
56668;BME280;42542;48.360;10.958;2022-08-21T17:03:00;95952.16;;;24.61;39.09
56668;BME280;42542;48.360;10.958;2022-08-21T17:06:08;95957.50;;;24.51;38.96
56668;BME280;42542;48.360;10.958;2022-08-21T17:09:10;95951.84;;;24.36;39.59
56668;BME280;42542;48.360;10.958;2022-08-21T17:12:17;95964.41;;;24.37;39.47
56668;BME280;42542;48.360;10.958;2022-08-21T17:15:36;95965.94;;;24.28;40.91
56668;BME280;42542;48.360;10.958;2022-08-21T17:18:38;95973.00;;;24.24;41.00
56668;BME280;42542;48.360;10.958;2022-08-21T17:22:05;95954.72;;;24.07;41.59
56668;BME280;42542;48.360;10.958;2022-08-21T17:25:08;95966.66;;;24.01;41.18
56668;BME280;42542;48.360;10.958;2022-08-21T17:28:15;95965.78;;;23.96;41.82
56668;BME280;42542;48.360;10.958;2022-08-21T17:31:17;95955.53;;;23.86;43.34
56668;BME280;42542;48.360;10.958;2022-08-21T17:34:21;95949.34;;;23.74;43.01
56668;BME280;42542;48.360;10.958;2022-08-21T17:37:26;95957.97;;;23.66;44.84
56668;BME280;42542;48.360;10.958;2022-08-21T17:40:30;95946.81;;;23.51;44.73